createdAt,value
2023-04-10T00:00:48.016Z,6.80
2023-04-10T00:02:28.172Z,6.75
2023-04-10T00:04:20.988Z,6.50
2023-04-10T00:06:07.998Z,7.30
2023-04-10T00:07:54.698Z,6.93
2023-04-10T00:09:34.647Z,6.70
2023-04-10T00:11:20.970Z,5.95
2023-04-10T00:13:01.189Z,8.05
2023-04-10T00:14:55.895Z,6.40
2023-04-10T00:16:43.040Z,7.40
2023-04-10T00:18:43.052Z,6.65
2023-04-10T00:20:29.675Z,6.68
2023-04-10T00:22:22.161Z,6.50
2023-04-10T00:24:22.084Z,6.72
2023-04-10T00:26:10.507Z,6.10
2023-04-10T00:28:04.058Z,6.40
2023-04-10T00:29:43.833Z,6.82
2023-04-10T00:31:38.912Z,6.78
2023-04-10T00:33:25.047Z,6.07
2023-04-10T00:35:12.293Z,6.70
2023-04-10T00:36:51.665Z,7.53
2023-04-10T00:38:36.979Z,8.15
2023-04-10T00:40:17.330Z,6.57
2023-04-10T00:42:10.932Z,7.30
2023-04-10T00:43:59.950Z,7.70
2023-04-10T00:46:00.236Z,9.77
2023-04-10T00:47:48.219Z,10.80
2023-04-10T00:49:40.031Z,11.00
2023-04-10T00:51:20.859Z,9.60
2023-04-10T00:53:13.977Z,8.98
2023-04-10T00:55:00.023Z,8.60
2023-04-10T00:57:00.037Z,8.20
2023-04-10T00:58:46.727Z,7.32
2023-04-10T01:00:40.022Z,7.90
2023-04-10T01:02:20.525Z,9.40
2023-04-10T01:04:15.065Z,7.60
2023-04-10T01:06:12.116Z,7.63
2023-04-10T01:08:10.459Z,7.70
2023-04-10T01:10:00.477Z,7.15
2023-04-10T01:11:58.054Z,7.28
2023-04-10T01:13:44.364Z,5.93
2023-04-10T01:15:40.998Z,7.68
2023-04-10T01:17:36.100Z,7.25
2023-04-10T01:19:54.103Z,6.70
2023-04-10T01:21:42.742Z,7.50
2023-04-10T01:24:18.979Z,7.00
2023-04-10T01:26:24.260Z,6.18
2023-04-10T01:28:30.908Z,6.97
2023-04-10T01:30:29.084Z,6.63
2023-04-10T01:32:34.930Z,7.53
2023-04-10T01:34:26.134Z,7.10
2023-04-10T01:36:22.121Z,6.90
2023-04-10T01:38:03.321Z,7.07
2023-04-10T01:39:58.074Z,7.63
2023-04-10T01:41:54.058Z,7.88
2023-04-10T01:43:42.191Z,7.03
2023-04-10T01:45:37.055Z,7.53
2023-04-10T01:47:23.057Z,7.82
2023-04-10T01:49:24.977Z,7.93
2023-04-10T01:51:19.364Z,7.93
2023-04-10T01:53:14.091Z,7.90
2023-04-10T01:54:55.298Z,8.55
2023-04-10T01:56:57.228Z,9.05
2023-04-10T01:58:56.064Z,8.57
2023-04-10T02:00:47.204Z,8.57
2023-04-10T02:02:41.292Z,9.23
2023-04-10T02:04:35.110Z,9.60
2023-04-10T02:06:18.640Z,10.50
2023-04-10T02:08:20.174Z,8.23
2023-04-10T02:10:12.030Z,8.65
2023-04-10T02:12:06.848Z,7.85
2023-04-10T02:13:48.141Z,8.50
2023-04-10T02:15:37.118Z,8.20
2023-04-10T02:17:22.479Z,7.50
2023-04-10T02:19:16.141Z,8.55
2023-04-10T02:21:05.042Z,7.55
2023-04-10T02:23:10.061Z,7.47
2023-04-10T02:24:58.295Z,7.47
2023-04-10T02:27:01.051Z,7.40
2023-04-10T02:29:01.030Z,6.82
2023-04-10T02:30:48.225Z,6.45
2023-04-10T02:32:43.155Z,6.93
2023-04-10T02:34:22.790Z,6.88
2023-04-10T02:36:16.158Z,7.35
2023-04-10T02:38:03.093Z,6.60
2023-04-10T02:39:51.353Z,8.10
2023-04-10T02:41:31.883Z,7.75
2023-04-10T02:43:19.091Z,7.60
2023-04-10T02:44:59.367Z,7.22
2023-04-10T02:46:57.271Z,6.88
2023-04-10T02:48:46.143Z,7.15
2023-04-10T02:50:48.002Z,7.50
2023-04-10T02:52:35.007Z,85.35
2023-04-10T02:54:28.077Z,8.25
2023-04-10T02:56:09.188Z,8.13
2023-04-10T02:58:02.105Z,9.07
2023-04-10T03:00:01.115Z,8.15
2023-04-10T03:02:07.625Z,7.80
2023-04-10T03:04:02.305Z,7.50
2023-04-10T03:05:54.208Z,7.20
2023-04-10T03:07:57.984Z,9.40
2023-04-10T03:09:45.129Z,7.47
2023-04-10T03:11:39.326Z,7.78
2023-04-10T03:13:39.193Z,7.03
2023-04-10T03:15:26.417Z,6.40
2023-04-10T03:17:20.120Z,7.43
2023-04-10T03:19:02.385Z,7.28
2023-04-10T03:20:55.087Z,7.00
2023-04-10T03:22:43.100Z,7.95
2023-04-10T03:24:30.480Z,53.15
2023-04-10T03:26:11.072Z,23.15
2023-04-10T03:27:57.212Z,9.43
2023-04-10T03:29:37.316Z,8.73
2023-04-10T03:31:30.186Z,6.88
2023-04-10T03:33:25.194Z,7.45
2023-04-10T03:35:27.043Z,7.22
2023-04-10T03:37:14.010Z,7.88
2023-04-10T03:39:10.085Z,7.72
2023-04-10T03:40:50.064Z,7.13
2023-04-10T03:42:47.190Z,7.30
2023-04-10T03:44:35.452Z,7.32
2023-04-10T03:46:25.374Z,7.57
2023-04-10T03:48:06.872Z,7.55
2023-04-10T03:49:57.177Z,12.75
2023-04-10T03:51:38.260Z,12.57
2023-04-10T03:53:25.125Z,9.48
2023-04-10T03:55:12.244Z,8.55
2023-04-10T03:56:52.291Z,8.88
2023-04-10T03:58:45.051Z,8.27
2023-04-10T04:00:33.423Z,8.63
2023-04-10T04:02:47.259Z,8.23
2023-04-10T04:04:51.930Z,8.27
2023-04-10T04:07:04.254Z,9.13
2023-04-10T04:09:20.743Z,10.35
2023-04-10T04:11:31.452Z,10.77
2023-04-10T04:13:29.336Z,10.48
2023-04-10T04:15:23.938Z,10.73
2023-04-10T04:17:33.317Z,11.32
2023-04-10T04:19:19.220Z,11.77
2023-04-10T04:21:36.050Z,10.57
2023-04-10T04:23:56.643Z,10.30
2023-04-10T04:26:16.301Z,9.10
2023-04-10T04:28:23.473Z,9.35
2023-04-10T04:30:22.497Z,10.27
2023-04-10T04:32:41.201Z,10.63
2023-04-10T04:35:01.126Z,9.27
2023-04-10T04:36:55.848Z,10.50
2023-04-10T04:38:51.244Z,8.40
2023-04-10T04:41:05.100Z,8.70
2023-04-10T04:42:55.892Z,9.10
2023-04-10T04:45:25.253Z,9.10
2023-04-10T04:47:24.454Z,9.13
2023-04-10T04:49:29.370Z,8.57
2023-04-10T04:51:39.356Z,8.13
2023-04-10T04:53:59.120Z,9.88
2023-04-10T04:56:02.710Z,8.85
2023-04-10T04:58:25.409Z,9.93
2023-04-10T05:00:30.076Z,9.05
2023-04-10T05:02:40.417Z,12.60
2023-04-10T05:04:44.267Z,10.20
2023-04-10T05:06:40.967Z,11.02
2023-04-10T05:08:47.360Z,10.57
2023-04-10T05:10:54.270Z,10.85
2023-04-10T05:12:50.530Z,10.90
2023-04-10T05:14:54.383Z,10.80
2023-04-10T05:16:51.388Z,11.80
2023-04-10T05:19:22.171Z,10.93
2023-04-10T05:21:38.143Z,11.40
2023-04-10T05:23:49.382Z,10.50
2023-04-10T05:26:02.397Z,9.38
2023-04-10T05:28:17.142Z,10.85
2023-04-10T05:30:29.259Z,11.95
2023-04-10T05:32:28.111Z,13.10
2023-04-10T05:34:44.384Z,12.95
2023-04-10T05:37:00.670Z,13.10
2023-04-10T05:39:17.378Z,13.80
2023-04-10T05:41:16.188Z,14.07
2023-04-10T05:43:22.274Z,12.02
2023-04-10T05:45:40.786Z,12.90
2023-04-10T05:48:01.936Z,14.20
2023-04-10T05:49:55.243Z,16.92
2023-04-10T05:51:35.474Z,29.80
2023-04-10T05:53:35.257Z,20.70
2023-04-10T05:55:44.198Z,17.73
2023-04-10T05:58:06.259Z,23.33
2023-04-10T06:00:14.326Z,16.23
2023-04-10T06:02:27.450Z,15.00
2023-04-10T06:04:21.775Z,12.93
2023-04-10T06:06:11.207Z,13.13
2023-04-10T06:07:58.596Z,14.30
2023-04-10T06:09:45.588Z,16.98
2023-04-10T06:11:24.954Z,14.00
2023-04-10T06:13:12.223Z,13.48
2023-04-10T06:14:52.526Z,15.93
2023-04-10T06:16:47.198Z,18.05
2023-04-10T06:18:35.240Z,20.55
2023-04-10T06:20:36.317Z,19.08
2023-04-10T06:22:22.991Z,12.00
2023-04-10T06:24:16.545Z,11.18
2023-04-10T06:26:16.346Z,9.75
2023-04-10T06:28:03.245Z,10.40
2023-04-10T06:29:57.250Z,10.77
2023-04-10T06:31:38.306Z,11.18
2023-04-10T06:33:33.553Z,11.90
2023-04-10T06:35:20.294Z,11.38
2023-04-10T06:37:06.396Z,11.75
2023-04-10T06:38:46.254Z,14.05
2023-04-10T06:40:33.310Z,15.48
2023-04-10T06:42:13.658Z,13.98
2023-04-10T06:44:21.532Z,13.65
2023-04-10T06:46:08.263Z,12.77
2023-04-10T06:48:08.273Z,13.43
2023-04-10T06:49:56.645Z,13.90
2023-04-10T06:51:49.335Z,14.77
2023-04-10T06:53:29.087Z,15.27
2023-04-10T06:55:23.197Z,14.85
2023-04-10T06:57:09.290Z,14.60
2023-04-10T06:58:56.451Z,14.73
2023-04-10T07:00:36.221Z,15.40
2023-04-10T07:02:23.494Z,14.48
2023-04-10T07:04:03.643Z,14.73
2023-04-10T07:05:58.201Z,13.02
2023-04-10T07:07:44.294Z,12.43
2023-04-10T07:09:45.466Z,11.98
2023-04-10T07:11:32.172Z,22.38
2023-04-10T07:13:25.331Z,12.88
2023-04-10T07:15:25.433Z,12.10
2023-04-10T07:17:12.185Z,11.35
2023-04-10T07:19:05.330Z,10.30
2023-04-10T07:20:45.133Z,10.73
2023-04-10T07:22:40.271Z,11.40
2023-04-10T07:24:34.307Z,10.80
2023-04-10T07:26:14.822Z,9.95
2023-04-10T07:28:07.239Z,10.75
2023-04-10T07:29:53.401Z,11.52
2023-04-10T07:31:54.564Z,11.40
2023-04-10T07:33:41.716Z,12.43
2023-04-10T07:35:34.531Z,11.57
2023-04-10T07:37:14.193Z,11.65
2023-04-10T07:39:09.286Z,12.52
2023-04-10T07:40:56.406Z,10.18
2023-04-10T07:42:42.655Z,9.80
2023-04-10T07:44:22.174Z,8.90
2023-04-10T07:46:08.384Z,8.75
2023-04-10T07:47:48.936Z,9.45
2023-04-10T07:49:41.284Z,8.82
2023-04-10T07:51:34.368Z,9.65
2023-04-10T07:53:14.352Z,8.85
2023-04-10T07:55:09.316Z,10.07
2023-04-10T07:56:55.369Z,9.95
2023-04-10T07:58:55.561Z,8.60
2023-04-10T08:00:42.266Z,10.00
2023-04-10T08:02:35.437Z,9.98
2023-04-10T08:04:15.310Z,9.60
2023-04-10T08:06:08.274Z,9.85
2023-04-10T08:07:54.315Z,9.60
2023-04-10T08:09:40.606Z,9.43
2023-04-10T08:11:27.506Z,8.45
2023-04-10T08:13:14.372Z,9.32
2023-04-10T08:14:53.684Z,8.68
2023-04-10T08:16:47.374Z,8.80
2023-04-10T08:18:34.386Z,8.48
2023-04-10T08:20:34.449Z,7.88
2023-04-10T08:22:21.183Z,9.45
2023-04-10T08:24:16.441Z,9.57
2023-04-10T08:26:16.373Z,8.88
2023-04-10T08:28:04.570Z,8.10
2023-04-10T08:29:58.514Z,7.97
2023-04-10T08:31:38.108Z,8.35
2023-04-10T08:33:31.296Z,8.52
2023-04-10T08:35:17.401Z,8.10
2023-04-10T08:37:05.646Z,8.38
2023-04-10T08:38:45.412Z,7.97
2023-04-10T08:40:31.391Z,8.50
2023-04-10T08:42:12.012Z,8.02
2023-04-10T08:44:06.374Z,8.25
2023-04-10T08:45:55.404Z,7.20
2023-04-10T08:47:58.560Z,6.95
2023-04-10T08:49:57.373Z,6.50
2023-04-10T08:51:53.371Z,6.50
2023-04-10T08:53:35.718Z,5.78
2023-04-10T08:55:28.406Z,6.57
2023-04-10T08:57:16.455Z,7.32
2023-04-10T08:59:18.576Z,7.47
2023-04-10T09:01:07.399Z,6.00
2023-04-10T09:03:04.581Z,5.65
2023-04-10T09:05:07.357Z,6.18
2023-04-10T09:06:54.602Z,6.32
2023-04-10T09:08:48.587Z,7.22
2023-04-10T09:10:28.334Z,6.03
2023-04-10T09:12:22.371Z,6.43
2023-04-10T09:14:08.400Z,6.95
2023-04-10T09:16:07.181Z,7.78
2023-04-10T09:17:57.974Z,7.38
2023-04-10T09:19:43.451Z,7.25
2023-04-10T09:21:23.636Z,4.85
2023-04-10T09:23:29.393Z,4.70
2023-04-10T09:25:17.473Z,5.57
2023-04-10T09:27:17.466Z,6.15
2023-04-10T09:29:05.779Z,6.35
2023-04-10T09:30:58.511Z,7.15
2023-04-10T09:32:41.988Z,5.93
2023-04-10T09:34:36.404Z,6.55
2023-04-10T09:36:23.473Z,4.97
2023-04-10T09:38:09.688Z,6.18
2023-04-10T09:39:49.198Z,7.80
2023-04-10T09:41:36.440Z,5.65
2023-04-10T09:43:28.773Z,5.55
2023-04-10T09:45:26.409Z,6.00
2023-04-10T09:47:13.440Z,5.68
2023-04-10T09:49:14.450Z,5.38
2023-04-10T09:51:01.211Z,6.82
2023-04-10T09:52:55.432Z,6.07
2023-04-10T09:54:38.837Z,6.05
2023-04-10T09:56:31.403Z,7.65
2023-04-10T09:58:18.437Z,7.32
2023-04-10T10:00:07.281Z,5.32
2023-04-10T10:01:47.504Z,6.68
2023-04-10T10:03:34.429Z,6.03
2023-04-10T10:05:16.876Z,5.30
2023-04-10T10:07:10.360Z,6.55
2023-04-10T10:08:57.418Z,5.38
2023-04-10T10:11:01.585Z,5.32
2023-04-10T10:12:53.131Z,7.65
2023-04-10T10:14:48.735Z,6.20
2023-04-10T10:16:35.752Z,7.07
2023-04-10T10:18:37.378Z,6.53
2023-04-10T10:20:28.468Z,5.63
2023-04-10T10:22:16.831Z,5.25
2023-04-10T10:23:58.013Z,6.20
2023-04-10T10:25:45.525Z,7.72
2023-04-10T10:27:27.851Z,8.20
2023-04-10T10:29:25.399Z,8.05
2023-04-10T10:31:12.558Z,6.75
2023-04-10T10:33:13.617Z,7.65
2023-04-10T10:35:02.189Z,7.90
2023-04-10T10:36:57.680Z,7.00
2023-04-10T10:39:07.862Z,7.28
2023-04-10T10:41:02.190Z,6.50
2023-04-10T10:43:01.473Z,7.22
2023-04-10T10:44:46.613Z,6.13
2023-04-10T10:46:48.410Z,7.20
2023-04-10T10:48:35.485Z,7.05
2023-04-10T10:50:24.248Z,7.47
2023-04-10T10:52:05.769Z,9.10
2023-04-10T10:53:52.528Z,9.98
2023-04-10T10:55:43.210Z,11.05
2023-04-10T10:57:53.528Z,14.63
2023-04-10T11:00:09.475Z,30.92
2023-04-10T11:02:17.995Z,37.58
2023-04-10T11:04:11.569Z,11.82
2023-04-10T11:05:58.554Z,7.82
2023-04-10T11:08:18.897Z,24.42
2023-04-10T11:10:12.457Z,4.57
2023-04-10T11:12:14.519Z,3.67
2023-04-10T11:14:31.744Z,8.23
2023-04-10T11:16:18.353Z,7.45
2023-04-10T11:18:11.569Z,7.00
2023-04-10T11:20:12.455Z,6.95
2023-04-10T11:22:07.490Z,10.48
2023-04-10T11:24:18.494Z,10.80
2023-04-10T11:25:58.466Z,10.48
2023-04-10T11:27:53.113Z,9.43
2023-04-10T11:29:42.557Z,9.93
2023-04-10T11:31:24.445Z,8.60
2023-04-10T11:33:18.455Z,10.57
2023-04-10T11:35:05.529Z,8.07
2023-04-10T11:36:53.509Z,6.93
2023-04-10T11:38:33.281Z,8.70
2023-04-10T11:40:21.668Z,9.70
2023-04-10T11:42:04.322Z,12.52
2023-04-10T11:43:59.491Z,10.85
2023-04-10T11:45:46.619Z,10.23
2023-04-10T11:47:46.560Z,11.60
2023-04-10T11:49:35.004Z,13.15
2023-04-10T11:51:29.896Z,15.77
2023-04-10T11:53:20.031Z,12.60
2023-04-10T11:55:12.430Z,14.88
2023-04-10T11:57:08.637Z,18.45
2023-04-10T11:59:09.480Z,20.75
2023-04-10T12:01:20.450Z,15.20
2023-04-10T12:03:14.037Z,17.83
2023-04-10T12:05:05.847Z,20.27
2023-04-10T12:06:46.966Z,18.45
2023-04-10T12:08:38.856Z,15.63
2023-04-10T12:10:18.714Z,14.82
2023-04-10T12:12:14.514Z,13.57
2023-04-10T12:14:00.677Z,12.50
2023-04-10T12:16:00.581Z,14.48
2023-04-10T12:17:47.437Z,16.83
2023-04-10T12:19:41.675Z,14.90
2023-04-10T12:21:21.779Z,16.52
2023-04-10T12:23:15.519Z,16.77
2023-04-10T12:25:01.766Z,13.75
2023-04-10T12:26:56.415Z,16.90
2023-04-10T12:28:38.271Z,15.02
2023-04-10T12:30:25.692Z,15.50
2023-04-10T12:32:05.894Z,14.02
2023-04-10T12:34:00.478Z,12.27
2023-04-10T12:35:53.799Z,11.70
2023-04-10T12:38:03.556Z,13.32
2023-04-10T12:39:50.530Z,12.30
2023-04-10T12:41:45.611Z,11.50
2023-04-10T12:43:33.061Z,11.80
2023-04-10T12:45:27.550Z,13.23
2023-04-10T12:47:13.565Z,11.23
2023-04-10T12:48:59.721Z,12.20
2023-04-10T12:50:48.698Z,11.82
2023-04-10T12:52:35.842Z,13.57
2023-04-10T16:09:46.833Z,16.33
2023-04-10T16:11:46.662Z,18.60
2023-04-10T16:13:33.635Z,22.20
2023-04-10T16:15:27.816Z,18.95
2023-04-10T16:17:07.893Z,16.23
2023-04-10T16:19:01.807Z,15.02
2023-04-10T16:20:48.927Z,15.63
2023-04-10T16:22:36.030Z,20.35
2023-04-10T16:24:15.492Z,19.83
2023-04-10T16:26:03.785Z,18.75
2023-04-10T16:27:44.437Z,21.52
2023-04-10T16:29:36.755Z,20.58
2023-04-10T16:31:23.894Z,20.45
2023-04-10T16:33:17.010Z,17.48
2023-04-10T16:35:03.892Z,17.33
2023-04-10T16:36:51.045Z,17.20
2023-04-10T16:38:36.980Z,27.77
2023-04-10T16:40:16.674Z,33.83
2023-04-10T16:42:04.989Z,25.25
2023-04-10T16:43:44.936Z,24.60
2023-04-10T16:45:31.666Z,28.83
2023-04-10T16:47:19.275Z,22.70
2023-04-10T16:48:59.004Z,25.83
2023-04-10T16:50:51.707Z,26.25
2023-04-10T16:52:38.956Z,25.27
2023-04-10T16:54:38.710Z,26.65
2023-04-10T16:56:26.956Z,26.17
2023-04-10T16:58:21.782Z,24.95
2023-04-10T17:00:01.949Z,27.20
2023-04-10T17:01:54.897Z,26.15
2023-04-10T17:03:41.961Z,27.42
2023-04-10T17:05:27.989Z,54.00
2023-04-10T17:07:07.769Z,37.92
2023-04-10T17:08:57.278Z,25.25
2023-04-10T17:10:44.485Z,24.10
2023-04-10T17:12:30.797Z,27.67
2023-04-10T17:14:19.847Z,22.88
2023-04-10T17:16:05.994Z,28.95
2023-04-10T17:17:45.550Z,34.33
2023-04-10T17:19:32.958Z,36.67
2023-04-10T17:21:13.319Z,33.30
2023-04-10T17:23:05.847Z,35.63
2023-04-10T17:24:53.140Z,35.28
2023-04-10T17:26:52.758Z,29.98
2023-04-10T17:28:52.925Z,34.92
2023-04-10T17:30:48.082Z,43.90
2023-04-10T17:32:33.983Z,40.60
2023-04-10T17:34:13.527Z,31.83
2023-04-10T17:35:59.998Z,29.25
2023-04-10T17:37:40.004Z,31.80
2023-04-10T17:39:33.773Z,33.17
2023-04-10T17:41:22.085Z,38.65
2023-04-10T17:43:21.868Z,65.75
2023-04-10T17:45:09.311Z,46.05
2023-04-10T17:47:04.019Z,41.67
2023-04-10T17:48:43.713Z,39.63
2023-04-10T17:50:39.593Z,48.45
2023-04-10T17:52:25.909Z,50.03
2023-04-10T17:54:11.996Z,34.28
2023-04-10T17:55:51.503Z,33.47
2023-04-10T17:57:37.958Z,32.00
2023-04-10T17:59:18.974Z,39.67
2023-04-10T18:01:13.857Z,44.60
2023-04-10T18:03:08.896Z,39.15
2023-04-10T18:04:48.558Z,42.88
2023-04-10T18:06:41.764Z,39.85
2023-04-10T18:08:35.052Z,33.47
2023-04-10T18:10:15.838Z,33.03
2023-04-10T18:12:08.811Z,39.95
2023-04-10T18:13:55.928Z,38.55
2023-04-10T18:15:56.049Z,31.90
2023-04-10T18:17:55.944Z,29.80
2023-04-10T18:19:50.888Z,29.52
2023-04-10T18:21:37.074Z,29.40
2023-04-10T18:23:16.600Z,27.52
2023-04-10T18:25:03.838Z,36.38
2023-04-10T18:26:43.074Z,35.55
2023-04-10T18:28:35.895Z,23.25
2023-04-10T18:30:23.934Z,26.73
2023-04-10T18:32:23.821Z,25.75
2023-04-10T18:34:10.938Z,22.05
2023-04-10T18:36:05.881Z,22.45
2023-04-10T18:37:45.680Z,18.73
2023-04-10T18:39:39.304Z,21.63
2023-04-10T18:41:24.937Z,22.75
2023-04-10T18:43:11.032Z,21.10
2023-04-10T18:44:50.716Z,27.35
2023-04-10T18:46:39.001Z,26.13
2023-04-10T18:48:19.055Z,21.30
2023-04-10T18:50:12.995Z,25.73
2023-04-10T18:52:08.929Z,18.15
2023-04-10T18:53:48.614Z,16.80
2023-04-10T18:55:41.856Z,18.40
2023-04-10T18:57:27.943Z,24.25
2023-04-10T18:59:14.105Z,25.17
2023-04-10T19:00:54.824Z,24.10
2023-04-10T19:02:42.116Z,22.02
2023-04-10T19:04:22.146Z,17.98
2023-04-10T19:06:16.017Z,18.65
2023-04-10T19:08:04.989Z,20.92
2023-04-10T19:10:04.865Z,24.42
2023-04-10T19:12:04.828Z,18.90
2023-04-10T19:13:58.141Z,16.77
2023-04-10T19:15:47.096Z,18.75
2023-04-10T19:17:26.784Z,19.90
2023-04-10T19:19:13.898Z,19.13
2023-04-10T19:20:54.038Z,19.33
2023-04-10T19:22:47.011Z,19.33
2023-04-10T19:24:34.964Z,18.02
2023-04-10T19:26:34.850Z,18.20
2023-04-10T19:28:28.298Z,16.65
2023-04-10T19:30:15.919Z,18.85
2023-04-10T19:31:55.650Z,21.73
2023-04-10T19:33:49.050Z,17.67
2023-04-10T19:35:35.002Z,17.13
2023-04-10T19:37:21.071Z,14.52
2023-04-10T19:39:00.764Z,17.90
2023-04-10T19:40:48.881Z,16.52
2023-04-10T19:42:29.072Z,20.20
2023-04-10T19:44:22.181Z,20.88
2023-04-10T19:46:08.954Z,30.90
2023-04-10T19:48:08.825Z,29.63
2023-04-10T19:49:55.624Z,27.60
2023-04-10T19:51:48.983Z,20.40
2023-04-10T19:53:28.770Z,22.25
2023-04-10T19:55:22.863Z,21.42
2023-04-10T19:57:11.049Z,18.90
2023-04-10T19:58:57.358Z,23.13
2023-04-10T20:00:37.741Z,24.75
2023-04-10T20:02:25.081Z,23.00
2023-04-10T20:04:05.270Z,25.17
2023-04-10T20:05:58.009Z,26.77
2023-04-10T20:07:50.958Z,31.92
2023-04-10T20:09:30.681Z,34.78
2023-04-10T20:11:24.029Z,38.25
2023-04-10T20:13:18.953Z,23.27
2023-04-10T20:15:06.337Z,28.50
2023-04-10T20:16:46.404Z,24.73
2023-04-10T20:18:32.956Z,25.10
2023-04-10T20:20:13.651Z,20.05
2023-04-10T20:22:06.914Z,21.80
2023-04-10T20:23:52.998Z,20.10
2023-04-10T20:25:47.085Z,16.88
2023-04-10T20:27:32.883Z,18.58
2023-04-10T20:29:20.972Z,20.20
2023-04-10T20:31:07.409Z,22.17
2023-04-10T20:32:47.049Z,20.92
2023-04-10T20:34:32.920Z,16.98
2023-04-10T20:36:13.445Z,22.25
2023-04-10T20:38:06.112Z,18.42
2023-04-10T20:39:53.024Z,20.27
2023-04-10T20:41:52.897Z,17.67
2023-04-10T20:43:39.847Z,14.60
2023-04-10T20:45:34.983Z,14.60
2023-04-10T20:47:34.973Z,15.05
2023-04-10T20:49:22.851Z,15.90
2023-04-10T20:51:15.966Z,18.70
2023-04-10T20:52:55.743Z,17.20
2023-04-10T20:54:48.887Z,15.45
2023-04-10T20:56:42.917Z,15.00
2023-04-10T20:58:31.163Z,16.95
2023-04-10T21:00:11.936Z,15.00
2023-04-10T21:02:03.161Z,18.02
2023-04-10T21:03:43.385Z,17.63
2023-04-10T21:05:36.281Z,16.45
2023-04-10T21:07:22.992Z,15.77
2023-04-10T21:09:22.937Z,18.48
2023-04-10T21:11:22.943Z,17.33
2023-04-10T21:13:15.978Z,16.90
2023-04-10T21:14:56.121Z,18.02
2023-04-10T21:16:49.392Z,16.13
2023-04-10T21:18:37.012Z,18.17
2023-04-10T21:20:39.951Z,19.45
2023-04-10T21:22:29.125Z,19.42
2023-04-10T21:24:22.052Z,18.20
2023-04-10T21:26:21.899Z,18.65
2023-04-10T21:28:08.698Z,17.58
2023-04-10T21:30:01.064Z,19.77
2023-04-10T21:32:00.984Z,18.63
2023-04-10T21:33:49.077Z,20.35
2023-04-10T21:35:42.043Z,20.52
2023-04-10T21:37:21.902Z,22.52
2023-04-10T21:39:16.035Z,20.10
2023-04-10T21:41:08.982Z,17.42
2023-04-10T21:42:48.159Z,18.42
2023-04-10T21:44:41.031Z,17.77
2023-04-10T21:46:27.077Z,20.98
2023-04-10T21:48:26.981Z,19.80
2023-04-10T21:50:15.458Z,18.45
2023-04-10T21:52:09.045Z,19.55
2023-04-10T21:53:48.754Z,19.90
2023-04-10T21:55:42.032Z,18.88
2023-04-10T21:57:28.072Z,18.10
2023-04-10T21:59:14.206Z,21.83
2023-04-10T22:00:54.711Z,20.13
2023-04-10T22:02:41.209Z,18.75
2023-04-10T22:04:21.255Z,18.25
2023-04-10T22:06:16.113Z,17.20
2023-04-10T22:08:03.024Z,18.30
2023-04-10T22:10:03.009Z,17.17
2023-04-10T22:11:56.278Z,16.83
2023-04-10T22:13:42.033Z,24.42
2023-04-10T22:15:41.991Z,22.80
2023-04-10T22:17:29.635Z,17.77
2023-04-10T22:19:22.023Z,19.73
2023-04-10T22:21:01.732Z,21.40
2023-04-10T22:22:56.017Z,20.15
2023-04-10T22:24:42.064Z,18.75
2023-04-10T22:26:28.213Z,17.50
2023-04-10T22:28:08.022Z,17.60
2023-04-10T22:30:03.193Z,17.35
2023-04-10T22:31:44.223Z,18.27
2023-04-10T22:33:40.176Z,15.70
2023-04-10T22:35:27.021Z,16.65
2023-04-10T22:37:27.024Z,17.75
2023-04-10T22:39:15.369Z,19.73
2023-04-10T22:41:09.092Z,17.90
2023-04-10T22:42:55.312Z,18.35
2023-04-10T22:44:41.244Z,19.38
2023-04-10T22:46:27.120Z,16.42
2023-04-10T22:48:13.267Z,14.38
2023-04-10T22:49:52.854Z,20.92
2023-04-10T22:51:40.063Z,18.63
2023-04-10T22:53:19.234Z,20.85
2023-04-10T22:55:13.984Z,18.83
2023-04-10T22:57:00.125Z,17.95
2023-04-10T22:58:59.969Z,15.25
2023-04-10T23:00:46.945Z,15.10
2023-04-10T23:02:40.151Z,15.30
2023-04-10T23:04:40.010Z,14.77
2023-04-10T23:06:27.466Z,18.17
2023-04-10T23:08:20.053Z,17.38
2023-04-10T23:10:14.979Z,15.90
2023-04-10T23:12:09.332Z,17.25
2023-04-10T23:13:56.069Z,17.25
2023-04-10T23:15:35.960Z,17.10
2023-04-10T23:17:29.045Z,17.35
2023-04-10T23:19:16.184Z,15.85
2023-04-10T23:21:02.412Z,16.73
2023-04-10T23:22:42.032Z,17.83
2023-04-10T23:24:29.127Z,18.23
2023-04-10T23:26:11.427Z,18.40
2023-04-10T23:28:06.146Z,18.02
2023-04-10T23:29:53.136Z,17.60
2023-04-10T23:31:39.797Z,16.85
2023-04-10T23:33:33.171Z,16.40
2023-04-10T23:35:19.235Z,14.80
2023-04-10T23:37:05.272Z,14.43
2023-04-10T23:38:44.898Z,15.80
2023-04-10T23:40:32.114Z,16.23
2023-04-10T23:42:12.244Z,16.15
2023-04-10T23:44:07.111Z,15.98
2023-04-10T23:45:54.108Z,16.45
2023-04-10T23:47:54.085Z,18.67
2023-04-10T23:49:41.037Z,16.08
2023-04-10T23:51:34.166Z,15.80
2023-04-10T23:53:34.057Z,17.02
2023-04-10T23:55:21.694Z,16.08
2023-04-10T23:57:14.083Z,15.10
2023-04-10T23:58:54.119Z,15.23
